Time;durP1;ratioP1;P1;durP2;ratioP2;P2;SDS_P1;SDS_P2;PMS_P1;PMS_P2;Temp;Humidity;BMP_temperature;BMP_pressure;BME280_temperature;BME280_humidity;BME280_pressure;Samples;Min_cycle;Max_cycle;Signal;HPM_P1;HPM_P2
2022/02/20 00:00:30;;;;;;;4.50;1.50;;;3.50;96.30;;;;;;5031615;28;20230;-75
2022/02/20 00:02:55;;;;;;;10.77;1.83;;;3.40;96.30;;;;;;5031507;28;20294;-76
2022/02/20 00:05:21;;;;;;;3.93;1.63;;;3.30;96.30;;;;;;5013573;28;20168;-75
2022/02/20 00:07:47;;;;;;;4.20;0.90;;;3.30;96.30;;;;;;5031571;28;20175;-75
2022/02/20 00:10:12;;;;;;;4.10;1.07;;;3.00;96.30;;;;;;5034271;28;20632;-75
2022/02/20 00:12:38;;;;;;;3.63;1.23;;;2.90;96.30;;;;;;5035258;28;20195;-75
2022/02/20 00:15:04;;;;;;;4.27;1.30;;;2.80;96.30;;;;;;5035075;28;20538;-76
2022/02/20 00:17:30;;;;;;;3.90;1.33;;;2.80;96.30;;;;;;5035242;28;20169;-75
2022/02/20 00:19:55;;;;;;;4.50;1.40;;;2.60;96.30;;;;;;5035460;28;20822;-75
2022/02/20 00:22:21;;;;;;;1.80;0.80;;;2.50;96.30;;;;;;5017375;28;20192;-75
2022/02/20 00:24:46;;;;;;;4.10;1.17;;;2.40;96.30;;;;;;5034775;28;20681;-75
2022/02/20 00:27:12;;;;;;;4.87;1.37;;;2.20;96.30;;;;;;5035159;28;20173;-75
2022/02/20 00:29:37;;;;;;;5.07;1.20;;;2.20;96.30;;;;;;5017452;28;20238;-75
2022/02/20 00:32:04;;;;;;;4.70;1.40;;;2.10;96.30;;;;;;5028080;28;20617;-76
2022/02/20 00:34:29;;;;;;;3.23;1.20;;;1.90;96.30;;;;;;5034668;28;20662;-76
2022/02/20 00:36:55;;;;;;;3.23;0.80;;;1.70;96.30;;;;;;5034846;28;20419;-76
2022/02/20 00:39:20;;;;;;;1.77;0.80;;;1.50;96.30;;;;;;5017107;28;20259;-76
2022/02/20 00:41:45;;;;;;;6.40;1.37;;;1.40;96.30;;;;;;5035005;28;20270;-76
2022/02/20 00:44:11;;;;;;;4.67;1.10;;;1.30;96.30;;;;;;5016984;28;20679;-76
2022/02/20 00:46:36;;;;;;;3.67;0.90;;;1.20;96.30;;;;;;5034563;28;20218;-76
2022/02/20 00:49:02;;;;;;;3.83;1.27;;;1.20;96.30;;;;;;5034705;28;20176;-77
2022/02/20 00:51:28;;;;;;;1.63;0.80;;;1.10;96.30;;;;;;5034669;28;20226;-77
2022/02/20 00:53:53;;;;;;;2.03;0.90;;;1.10;96.30;;;;;;5034726;28;20173;-77
2022/02/20 00:56:19;;;;;;;3.83;1.20;;;1.00;96.30;;;;;;5034438;28;20176;-78
2022/02/20 00:58:44;;;;;;;5.30;1.30;;;1.00;96.30;;;;;;5034497;28;20180;-77
2022/02/20 05:02:23;;;;;;;1.40;0.80;;;3.50;96.30;;;;;;5088119;23;20495;-79
2022/02/20 05:04:49;;;;;;;1.47;0.97;;;3.50;96.30;;;;;;5013668;28;20468;-77
2022/02/20 05:07:14;;;;;;;6.37;1.70;;;3.50;96.30;;;;;;5014583;28;20188;-77
2022/02/20 05:09:41;;;;;;;1.50;1.00;;;3.60;96.30;;;;;;5014411;28;20180;-77
2022/02/20 05:12:07;;;;;;;3.00;1.00;;;3.60;96.30;;;;;;4996611;28;20193;-77
2022/02/20 05:14:33;;;;;;;4.87;1.33;;;3.60;96.30;;;;;;5013703;28;20408;-77
2022/02/20 05:16:58;;;;;;;5.27;1.40;;;3.60;96.30;;;;;;5015627;28;20177;-79
2022/02/20 05:19:24;;;;;;;6.87;1.30;;;3.60;96.30;;;;;;4997206;28;20199;-79
2022/02/20 08:20:21;;;;;;;3.13;1.40;;;4.40;96.30;;;;;;5030204;28;20470;-79
2022/02/20 08:22:47;;;;;;;2.63;1.60;;;4.40;96.30;;;;;;5031596;28;20777;-76
2022/02/20 08:25:13;;;;;;;5.83;1.30;;;4.30;96.30;;;;;;5030915;28;20203;-77
2022/02/20 08:27:39;;;;;;;4.83;1.27;;;4.30;96.30;;;;;;5018453;28;20731;-76
2022/02/20 08:30:08;;;;;;;4.27;1.60;;;4.30;96.30;;;;;;5011767;28;20506;-76
2022/02/20 08:32:34;;;;;;;4.13;1.30;;;4.30;96.30;;;;;;5015761;28;20173;-75
2022/02/20 08:34:59;;;;;;;8.73;2.00;;;4.40;96.30;;;;;;5014967;28;20511;-75
2022/02/20 08:37:25;;;;;;;4.00;1.40;;;4.50;96.30;;;;;;4997155;28;20436;-75
2022/02/20 08:39:51;;;;;;;1.80;1.20;;;4.50;96.30;;;;;;4995894;28;20174;-76
2022/02/20 08:42:17;;;;;;;5.50;1.40;;;4.60;96.30;;;;;;4995693;28;20472;-76
2022/02/20 08:44:42;;;;;;;2.33;1.10;;;4.70;96.30;;;;;;4995251;28;20197;-76
2022/02/20 08:47:08;;;;;;;4.40;1.20;;;4.80;96.30;;;;;;4995324;28;20280;-75
2022/02/20 08:49:33;;;;;;;7.20;1.40;;;4.90;96.30;;;;;;4995592;28;20261;-75
2022/02/20 08:52:00;;;;;;;4.40;1.20;;;5.10;96.30;;;;;;4995625;28;20256;-76
2022/02/20 08:54:25;;;;;;;6.03;1.30;;;5.10;96.30;;;;;;4993735;28;20709;-75
2022/02/20 08:56:51;;;;;;;5.17;1.33;;;5.20;96.30;;;;;;4995196;28;20515;-76
2022/02/20 08:59:16;;;;;;;2.63;1.00;;;5.30;96.30;;;;;;4995406;28;20178;-75
2022/02/20 09:01:42;;;;;;;9.70;1.97;;;5.20;96.30;;;;;;4996191;28;20258;-75
2022/02/20 09:04:07;;;;;;;4.50;1.30;;;5.30;96.30;;;;;;5014741;28;20228;-75
2022/02/20 09:06:34;;;;;;;5.53;1.17;;;5.40;96.30;;;;;;5014490;28;20221;-74
2022/02/20 09:09:00;;;;;;;4.57;1.57;;;5.50;96.30;;;;;;5007940;28;20190;-76
2022/02/20 09:11:29;;;;;;;3.47;1.20;;;5.50;96.30;;;;;;5009735;28;20459;-74
2022/02/20 09:13:54;;;;;;;2.93;1.27;;;5.50;96.30;;;;;;4995196;28;20503;-74
2022/02/20 09:16:20;;;;;;;3.83;1.60;;;5.50;96.30;;;;;;4994724;28;20508;-74
2022/02/20 09:18:45;;;;;;;5.87;1.40;;;5.50;96.30;;;;;;4995002;28;20197;-74
2022/02/20 09:21:12;;;;;;;3.90;1.20;;;5.50;96.30;;;;;;5010129;28;20695;-74
2022/02/20 09:23:37;;;;;;;7.53;1.73;;;5.50;96.30;;;;;;4994708;28;20217;-74
2022/02/20 09:26:05;;;;;;;5.10;1.43;;;5.60;96.30;;;;;;4993158;28;20479;-74
2022/02/20 09:28:30;;;;;;;3.13;1.33;;;5.60;96.30;;;;;;4994487;28;20652;-74
2022/02/20 09:30:56;;;;;;;4.20;1.00;;;5.70;96.30;;;;;;4994762;28;20443;-74
2022/02/20 09:33:21;;;;;;;2.63;1.00;;;5.70;96.30;;;;;;5009873;28;20273;-74
2022/02/20 09:35:47;;;;;;;2.13;1.10;;;5.80;96.30;;;;;;4998975;28;20181;-73
2022/02/20 09:38:12;;;;;;;5.77;1.17;;;5.90;96.30;;;;;;5013093;28;20200;-76
2022/02/20 09:40:38;;;;;;;9.07;2.20;;;5.90;96.30;;;;;;5014186;28;20249;-73
2022/02/20 09:43:03;;;;;;;3.47;1.00;;;5.90;96.30;;;;;;5011857;28;20197;-73
2022/02/20 09:45:30;;;;;;;7.10;1.20;;;5.80;96.30;;;;;;5013635;28;20175;-74
2022/02/20 09:48:01;;;;;;;8.10;1.50;;;5.90;96.30;;;;;;5013742;28;20197;-73
2022/02/20 09:50:28;;;;;;;3.77;1.20;;;6.00;96.30;;;;;;5014557;28;20416;-74
2022/02/20 09:52:53;;;;;;;3.80;1.23;;;6.00;96.30;;;;;;5020840;28;20427;-75
2022/02/20 09:55:19;;;;;;;5.03;1.03;;;6.00;96.30;;;;;;5018848;28;20481;-74
2022/02/20 10:08:17;;;;;;;2.70;1.00;;;6.40;96.30;;;;;;5823811;23;21292;-73
2022/02/20 10:10:43;;;;;;;4.20;1.40;;;6.60;96.30;;;;;;5033539;28;20991;-73
2022/02/20 10:13:08;;;;;;;4.10;1.40;;;6.90;96.30;;;;;;5038415;28;20403;-73
2022/02/20 10:15:35;;;;;;;3.23;1.33;;;6.80;96.30;;;;;;5042309;28;20188;-74
2022/02/20 10:18:16;;;;;;;3.37;1.37;;;7.00;96.30;;;;;;5019695;28;20185;-74
2022/02/20 10:20:42;;;;;;;4.07;1.20;;;6.80;96.30;;;;;;4995961;28;20408;-74
2022/02/20 10:23:14;;;;;;;4.80;1.43;;;6.90;96.30;;;;;;5013725;28;20423;-74
2022/02/20 10:25:44;;;;;;;4.80;1.30;;;6.80;96.30;;;;;;4996036;28;20173;-74
2022/02/20 11:34:57;;;;;;;3.50;1.20;;;5.50;96.30;;;;;;5862058;23;20670;-78
2022/02/20 11:37:22;;;;;;;3.53;1.13;;;5.50;96.30;;;;;;5050613;28;20442;-77
2022/02/20 11:40:04;;;;;;;3.03;1.30;;;5.40;96.30;;;;;;5051680;28;20414;-76
2022/02/20 11:42:30;;;;;;;3.80;1.10;;;5.50;96.30;;;;;;5030443;28;20186;-77
2022/02/20 11:45:07;;;;;;;2.07;0.80;;;5.60;96.30;;;;;;5033259;28;20545;-76
2022/02/20 11:47:36;;;;;;;2.23;0.90;;;5.50;96.30;;;;;;5051469;28;20433;-76
2022/02/20 11:50:16;;;;;;;2.23;1.37;;;5.60;96.30;;;;;;5030634;28;20419;-75
2022/02/20 11:52:57;;;;;;;1.00;0.70;;;5.60;96.30;;;;;;5031745;28;20786;-76
2022/02/20 11:55:27;;;;;;;5.20;2.33;;;5.70;96.30;;;;;;5051365;28;20501;-76
2022/02/20 11:58:21;;;;;;;5.30;3.27;;;5.70;96.30;;;;;;5051471;28;20453;-75
2022/02/20 12:00:55;;;;;;;19.37;14.77;;;5.70;96.30;;;;;;5051546;28;20496;-75
2022/02/20 12:03:26;;;;;;;4.03;3.13;;;5.70;96.30;;;;;;5051331;28;20409;-78
2022/02/20 12:06:24;;;;;;;4.17;2.23;;;5.70;96.30;;;;;;5034887;28;20407;-77
2022/02/20 12:08:53;;;;;;;1.37;0.90;;;5.70;96.30;;;;;;5011408;28;20428;-77
2022/02/20 12:11:32;;;;;;;1.30;1.00;;;5.70;96.30;;;;;;5034166;28;20407;-77
2022/02/20 12:13:59;;;;;;;3.07;0.80;;;5.60;96.30;;;;;;5047151;28;20382;-78
2022/02/20 12:16:38;;;;;;;2.20;0.90;;;5.60;96.30;;;;;;5054905;28;20406;-77
2022/02/20 12:19:19;;;;;;;1.17;0.70;;;5.60;96.30;;;;;;5055167;28;20413;-76
2022/02/20 12:22:00;;;;;;;1.97;0.93;;;5.60;96.30;;;;;;5035696;28;20411;-76
2022/02/20 12:24:45;;;;;;;1.10;0.70;;;5.60;96.30;;;;;;5054738;28;20453;-76
2022/02/20 12:27:15;;;;;;;1.97;0.60;;;5.60;96.30;;;;;;5034641;28;20530;-77
2022/02/20 12:29:49;;;;;;;1.67;0.83;;;5.60;96.30;;;;;;5017287;28;20801;-76
2022/02/20 12:32:22;;;;;;;0.90;0.60;;;5.60;96.30;;;;;;5034943;28;20399;-77
2022/02/20 12:35:01;;;;;;;1.03;0.60;;;5.60;96.30;;;;;;5017142;28;20411;-76
2022/02/20 12:37:29;;;;;;;1.10;0.80;;;5.60;96.30;;;;;;5032288;28;20438;-76
2022/02/20 12:40:09;;;;;;;1.73;0.90;;;5.60;96.30;;;;;;5054285;28;20916;-76
2022/02/20 12:42:44;;;;;;;1.07;0.50;;;5.60;96.30;;;;;;5033841;28;20419;-77
2022/02/20 12:45:14;;;;;;;1.20;0.70;;;5.50;96.30;;;;;;5054432;28;20868;-77
2022/02/20 12:47:40;;;;;;;0.90;0.60;;;5.50;96.30;;;;;;5054503;28;20483;-75
2022/02/20 12:50:09;;;;;;;1.40;0.80;;;5.50;96.30;;;;;;5054509;28;20398;-76
2022/02/20 12:52:37;;;;;;;1.17;0.73;;;5.50;96.30;;;;;;5054523;28;20937;-76
2022/02/20 12:55:05;;;;;;;1.20;0.60;;;5.60;96.30;;;;;;5032883;28;20415;-76
2022/02/20 12:57:36;;;;;;;1.07;0.73;;;5.60;96.30;;;;;;5033090;28;20984;-76
2022/02/20 13:00:06;;;;;;;0.80;0.60;;;5.60;96.30;;;;;;5033190;28;20454;-76
2022/02/20 13:02:34;;;;;;;0.90;0.50;;;5.60;96.30;;;;;;5050782;28;20414;-76
2022/02/20 13:05:21;;;;;;;1.00;0.50;;;5.60;96.30;;;;;;5053914;28;20487;-76
2022/02/20 13:07:52;;;;;;;1.00;0.73;;;5.60;96.30;;;;;;5054219;28;20906;-76
2022/02/20 13:10:21;;;;;;;0.90;0.47;;;5.60;96.30;;;;;;5033196;28;20459;-75
2022/02/20 13:13:05;;;;;;;0.90;0.70;;;5.70;96.30;;;;;;5052642;28;20405;-76
2022/02/20 13:15:53;;;;;;;0.80;0.50;;;5.70;96.30;;;;;;5053681;28;20402;-75
2022/02/20 13:18:23;;;;;;;1.40;0.40;;;5.70;96.30;;;;;;5032975;28;20802;-76
2022/02/20 13:20:58;;;;;;;1.30;0.70;;;5.70;96.30;;;;;;5035141;28;20437;-76
2022/02/20 13:23:38;;;;;;;1.97;1.30;;;5.80;96.30;;;;;;5053802;28;20932;-76
2022/02/20 13:26:15;;;;;;;1.40;0.70;;;5.70;96.30;;;;;;5027683;28;20413;-77
2022/02/20 13:28:55;;;;;;;0.80;0.50;;;5.80;96.30;;;;;;5053756;28;20459;-77
2022/02/20 13:31:24;;;;;;;0.83;0.50;;;5.80;96.30;;;;;;5035946;28;20409;-77
2022/02/20 13:33:55;;;;;;;1.10;0.40;;;5.90;96.30;;;;;;5053773;28;20414;-76
2022/02/20 13:36:23;;;;;;;0.80;0.40;;;5.80;96.30;;;;;;5053412;28;20444;-76
2022/02/20 13:39:10;;;;;;;1.17;0.53;;;5.70;96.30;;;;;;5053807;28;20754;-76
2022/02/20 13:41:37;;;;;;;1.67;0.60;;;5.70;96.30;;;;;;5033278;28;20434;-77
2022/02/20 13:44:04;;;;;;;1.00;0.50;;;5.70;96.30;;;;;;5053843;28;20453;-77
2022/02/20 13:46:43;;;;;;;1.60;0.90;;;5.70;96.30;;;;;;5053211;28;20413;-77
2022/02/20 13:49:10;;;;;;;0.80;0.50;;;5.70;96.30;;;;;;5053503;28;20422;-77
2022/02/20 13:51:40;;;;;;;2.80;0.70;;;5.80;96.30;;;;;;5053621;28;20480;-77
2022/02/20 13:54:11;;;;;;;2.40;0.60;;;5.80;96.30;;;;;;5053602;28;20916;-77
2022/02/20 13:56:58;;;;;;;1.53;0.80;;;5.90;96.30;;;;;;5034877;28;21068;-77
2022/02/20 13:59:30;;;;;;;1.03;0.80;;;5.90;96.30;;;;;;5055160;28;20869;-78
2022/02/20 14:02:03;;;;;;;1.53;0.60;;;5.90;96.30;;;;;;5053944;28;20406;-78
2022/02/20 14:04:31;;;;;;;2.53;1.50;;;6.00;96.30;;;;;;5032038;28;20531;-78
2022/02/20 14:07:05;;;;;;;1.00;0.60;;;6.00;96.30;;;;;;5053192;28;20483;-78
2022/02/20 14:09:32;;;;;;;2.27;1.00;;;6.00;96.30;;;;;;5053339;28;20399;-78
2022/02/20 14:12:33;;;;;;;1.20;0.50;;;6.00;96.30;;;;;;5053136;28;20410;-78
2022/02/20 14:15:11;;;;;;;0.90;0.50;;;6.10;96.30;;;;;;5053054;28;20402;-77
2022/02/20 14:18:01;;;;;;;1.00;0.57;;;6.00;96.30;;;;;;5032501;28;20442;-78
2022/02/20 14:20:30;;;;;;;2.00;0.97;;;6.00;96.30;;;;;;5053138;28;20959;-78
2022/02/20 14:22:57;;;;;;;0.80;0.50;;;6.10;96.30;;;;;;5053014;28;20410;-78
2022/02/20 14:25:23;;;;;;;0.90;0.70;;;6.10;96.30;;;;;;5052694;28;20548;-77
2022/02/20 14:27:54;;;;;;;1.10;0.60;;;6.10;96.30;;;;;;5052150;28;20917;-77
2022/02/20 14:30:39;;;;;;;1.37;0.90;;;6.20;96.30;;;;;;5052936;28;20393;-78
2022/02/20 14:33:08;;;;;;;1.57;0.90;;;6.20;96.30;;;;;;5031643;28;20413;-78
2022/02/20 14:35:35;;;;;;;1.00;0.60;;;6.20;96.30;;;;;;5049237;28;20868;-77
2022/02/20 14:38:04;;;;;;;1.33;0.70;;;6.20;96.30;;;;;;5052756;28;20441;-78
2022/02/20 14:40:31;;;;;;;0.90;0.57;;;6.20;96.30;;;;;;5052615;28;20414;-78
2022/02/20 14:42:57;;;;;;;3.50;1.10;;;6.20;96.30;;;;;;5052515;28;20422;-77
2022/02/20 14:45:24;;;;;;;0.83;0.50;;;6.30;96.30;;;;;;5052333;28;20537;-77
2022/02/20 14:47:51;;;;;;;1.83;1.20;;;6.30;96.30;;;;;;5051178;28;20196;-78
2022/02/20 14:50:16;;;;;;;1.87;0.70;;;6.40;96.30;;;;;;5052590;28;20407;-78
2022/02/20 14:52:42;;;;;;;1.20;0.70;;;6.30;96.30;;;;;;5034521;28;20463;-77
2022/02/20 14:55:08;;;;;;;1.40;0.63;;;6.30;96.30;;;;;;5034367;28;20180;-78
2022/02/20 14:57:33;;;;;;;1.63;0.70;;;6.40;96.30;;;;;;5052209;28;20666;-78
2022/02/20 14:59:59;;;;;;;1.63;0.67;;;6.40;96.30;;;;;;5034475;28;20187;-77
2022/02/20 15:02:24;;;;;;;0.90;0.50;;;6.40;96.30;;;;;;5052287;28;20201;-77
2022/02/20 15:04:50;;;;;;;0.90;0.53;;;6.40;96.30;;;;;;5052059;28;20195;-77
2022/02/20 15:07:16;;;;;;;1.10;0.60;;;6.50;96.30;;;;;;5034315;28;20189;-77
2022/02/20 15:09:42;;;;;;;1.37;0.57;;;6.50;96.30;;;;;;5052260;28;20217;-77
2022/02/20 15:12:08;;;;;;;1.80;0.90;;;6.50;96.30;;;;;;5052143;28;20410;-76
2022/02/20 15:14:33;;;;;;;1.60;1.20;;;6.50;96.30;;;;;;5051933;28;20262;-77
2022/02/20 15:16:59;;;;;;;0.80;0.50;;;6.50;96.30;;;;;;5034274;28;20529;-76
2022/02/20 15:19:25;;;;;;;1.27;0.60;;;6.40;96.30;;;;;;5052131;28;20183;-76
2022/02/20 15:21:50;;;;;;;0.90;0.60;;;6.40;96.30;;;;;;5034116;28;20237;-77
2022/02/20 15:24:15;;;;;;;0.90;0.70;;;6.50;96.30;;;;;;5033974;28;20230;-76
2022/02/20 15:26:41;;;;;;;1.10;0.97;;;6.50;96.30;;;;;;5051884;28;20200;-77
2022/02/20 15:29:07;;;;;;;0.90;0.63;;;6.50;96.30;;;;;;5034111;28;20183;-77
2022/02/20 15:31:32;;;;;;;0.80;0.50;;;6.40;96.30;;;;;;5051898;28;20198;-76
2022/02/20 15:33:58;;;;;;;1.47;0.70;;;6.40;96.30;;;;;;5051971;28;20258;-77
2022/02/20 15:36:23;;;;;;;0.80;0.50;;;6.40;96.30;;;;;;5051473;28;20282;-77
2022/02/20 15:38:54;;;;;;;1.20;0.60;;;6.40;96.30;;;;;;5051925;28;20183;-77
2022/02/20 15:41:25;;;;;;;0.93;0.73;;;6.40;96.30;;;;;;5054946;28;20179;-77
2022/02/20 15:43:51;;;;;;;1.57;0.60;;;6.40;96.30;;;;;;5055941;28;20945;-77
2022/02/20 15:46:16;;;;;;;1.47;0.90;;;6.40;96.30;;;;;;5034419;28;20422;-77
2022/02/20 15:48:42;;;;;;;0.90;0.60;;;6.40;96.30;;;;;;5036094;28;20199;-77
2022/02/20 15:51:08;;;;;;;1.10;0.87;;;6.40;96.30;;;;;;5056959;28;20203;-75
2022/02/20 15:53:36;;;;;;;1.47;0.80;;;6.30;96.30;;;;;;5056061;28;20417;-75
2022/02/20 15:56:02;;;;;;;3.27;2.10;;;6.30;96.30;;;;;;5034972;28;20180;-74
2022/02/20 15:58:28;;;;;;;1.70;0.53;;;6.30;96.30;;;;;;5034735;28;20839;-74
2022/02/20 16:00:54;;;;;;;0.90;0.60;;;6.20;96.30;;;;;;5055202;28;20437;-74
2022/02/20 16:03:19;;;;;;;1.20;0.70;;;6.30;96.30;;;;;;5055476;28;20882;-74
2022/02/20 16:05:45;;;;;;;0.90;0.50;;;6.30;96.30;;;;;;5055551;28;20171;-74
2022/02/20 16:08:11;;;;;;;1.10;0.70;;;6.30;96.30;;;;;;5055900;28;20290;-74
2022/02/20 16:10:37;;;;;;;1.40;0.60;;;6.20;96.30;;;;;;5055498;28;20182;-74
2022/02/20 16:13:03;;;;;;;0.80;0.50;;;6.30;96.30;;;;;;5055408;28;20513;-73
2022/02/20 16:15:29;;;;;;;0.80;0.50;;;6.30;96.30;;;;;;5055107;28;20179;-73
2022/02/20 16:17:54;;;;;;;2.00;1.47;;;6.30;96.30;;;;;;5055181;28;20483;-74
2022/02/20 16:20:20;;;;;;;0.90;0.60;;;6.30;96.30;;;;;;5055187;28;20184;-73
2022/02/20 16:22:46;;;;;;;0.97;0.60;;;6.30;96.30;;;;;;5055264;28;20175;-73
2022/02/20 16:25:11;;;;;;;1.73;0.83;;;6.30;96.30;;;;;;5054874;28;20195;-73
2022/02/20 16:27:37;;;;;;;0.80;0.50;;;6.30;96.30;;;;;;5055082;28;20202;-74
2022/02/20 16:30:23;;;;;;;1.73;1.00;;;6.30;96.30;;;;;;5055111;28;20178;-74
2022/02/20 16:32:48;;;;;;;1.07;0.70;;;6.40;96.30;;;;;;5055038;28;20175;-73
2022/02/20 16:35:14;;;;;;;1.63;0.80;;;6.30;96.30;;;;;;5054595;28;20433;-75
2022/02/20 16:37:39;;;;;;;1.63;1.30;;;6.40;96.30;;;;;;5054892;28;20202;-73
2022/02/20 16:40:05;;;;;;;1.40;0.70;;;6.40;96.30;;;;;;5054851;28;20179;-73
2022/02/20 16:42:31;;;;;;;1.57;0.73;;;6.30;96.30;;;;;;5054875;28;20176;-73
2022/02/20 16:44:56;;;;;;;0.83;0.63;;;6.40;96.30;;;;;;5054537;28;20537;-74
2022/02/20 16:47:22;;;;;;;0.87;0.60;;;6.40;96.30;;;;;;5054576;28;20274;-73
2022/02/20 16:49:48;;;;;;;1.50;1.00;;;6.40;96.30;;;;;;5054766;28;20229;-73
2022/02/20 16:52:13;;;;;;;2.70;1.00;;;6.50;96.30;;;;;;5054144;28;20171;-73
2022/02/20 16:54:39;;;;;;;1.47;0.60;;;6.50;96.30;;;;;;5054444;28;20654;-74
2022/02/20 16:57:05;;;;;;;1.77;1.10;;;6.40;96.30;;;;;;5054503;28;20191;-75
2022/02/20 16:59:30;;;;;;;1.73;0.80;;;6.50;96.30;;;;;;5054442;28;20421;-74
2022/02/20 17:01:56;;;;;;;1.50;0.90;;;6.50;96.30;;;;;;5054373;28;20176;-73
2022/02/20 17:04:22;;;;;;;2.07;1.37;;;6.50;96.30;;;;;;5054238;28;20257;-73
2022/02/20 17:06:48;;;;;;;2.20;0.90;;;6.60;96.30;;;;;;5054265;28;20199;-74
2022/02/20 17:09:14;;;;;;;3.70;2.57;;;6.60;96.30;;;;;;5054290;28;20179;-73
2022/02/20 17:11:40;;;;;;;1.00;0.90;;;6.60;96.30;;;;;;5054363;28;20414;-74
2022/02/20 17:14:05;;;;;;;0.90;0.60;;;6.60;96.30;;;;;;5054310;28;20441;-74
2022/02/20 17:16:31;;;;;;;1.23;0.83;;;6.60;96.30;;;;;;5053765;28;20262;-73
2022/02/20 17:18:56;;;;;;;1.00;0.70;;;6.60;96.30;;;;;;5054221;28;20190;-73
2022/02/20 17:21:22;;;;;;;1.00;0.73;;;6.60;96.30;;;;;;5054082;28;20191;-73
2022/02/20 17:23:47;;;;;;;1.83;0.73;;;6.60;96.30;;;;;;5054003;28;20207;-73
2022/02/20 17:26:13;;;;;;;3.30;0.80;;;6.60;96.30;;;;;;5053857;28;20180;-73
2022/02/20 17:28:38;;;;;;;2.90;0.73;;;6.60;96.30;;;;;;5053908;28;20195;-73
2022/02/20 17:31:07;;;;;;;0.93;0.73;;;6.60;96.30;;;;;;5053951;28;20259;-73
2022/02/20 17:33:33;;;;;;;0.90;0.67;;;6.60;96.30;;;;;;5053941;28;20172;-73
2022/02/20 17:35:59;;;;;;;1.73;1.00;;;6.70;96.30;;;;;;5053510;28;20432;-73
2022/02/20 17:38:24;;;;;;;2.50;0.70;;;6.70;96.30;;;;;;5053786;28;20521;-73
2022/02/20 17:40:50;;;;;;;4.73;3.17;;;6.70;96.30;;;;;;5053900;28;20255;-73
2022/02/20 17:43:17;;;;;;;1.40;0.60;;;6.70;96.30;;;;;;5053798;28;20167;-73
2022/02/20 17:45:43;;;;;;;1.70;1.10;;;6.70;96.30;;;;;;5053588;28;20203;-74
2022/02/20 17:48:08;;;;;;;2.70;1.73;;;6.70;96.30;;;;;;5053597;28;20936;-74
2022/02/20 17:50:34;;;;;;;2.27;1.50;;;6.70;96.30;;;;;;5053638;28;20172;-73
2022/02/20 17:53:01;;;;;;;8.37;3.90;;;6.70;96.30;;;;;;5053611;28;20182;-72
2022/02/20 17:55:27;;;;;;;2.03;1.33;;;6.70;96.30;;;;;;5053312;28;20193;-73
2022/02/20 17:57:52;;;;;;;2.03;1.17;;;6.80;96.30;;;;;;5053423;28;20441;-72
2022/02/20 18:00:18;;;;;;;2.53;0.70;;;6.70;96.30;;;;;;5032228;28;20938;-72
2022/02/20 18:02:44;;;;;;;2.30;1.73;;;6.70;96.30;;;;;;5050611;28;20236;-72
2022/02/20 18:05:10;;;;;;;1.20;0.87;;;6.70;96.30;;;;;;5052946;28;20207;-77
2022/02/20 18:07:37;;;;;;;1.27;0.70;;;6.80;96.30;;;;;;5053201;28;20449;-74
2022/02/20 18:10:03;;;;;;;2.03;0.70;;;6.80;96.30;;;;;;5032119;28;20418;-74
2022/02/20 18:12:29;;;;;;;1.10;0.70;;;6.70;96.30;;;;;;5049244;28;20901;-74
2022/02/20 18:14:54;;;;;;;1.73;0.70;;;6.70;96.30;;;;;;5034593;28;20488;-74
2022/02/20 18:17:20;;;;;;;1.57;1.07;;;6.80;96.30;;;;;;5053152;28;20203;-74
2022/02/20 18:19:46;;;;;;;1.50;0.70;;;6.80;96.30;;;;;;5031777;28;20225;-75
2022/02/20 18:22:14;;;;;;;1.07;0.70;;;6.90;96.30;;;;;;5047475;28;20662;-74
2022/02/20 18:24:40;;;;;;;0.87;0.60;;;6.90;96.30;;;;;;5042025;28;20549;-76
2022/02/20 18:27:05;;;;;;;1.97;1.20;;;6.90;96.30;;;;;;5024090;28;20541;-75
2022/02/20 18:29:31;;;;;;;1.77;0.90;;;6.90;96.30;;;;;;5045332;28;20191;-74
2022/02/20 18:31:59;;;;;;;1.50;1.13;;;6.90;96.30;;;;;;5032105;28;20165;-74
2022/02/20 18:34:25;;;;;;;2.03;1.83;;;6.90;96.30;;;;;;5033547;28;20539;-76
2022/02/20 18:36:51;;;;;;;0.90;0.70;;;6.90;96.30;;;;;;5049971;28;20466;-75
2022/02/20 18:39:21;;;;;;;3.10;1.70;;;6.90;96.30;;;;;;5050818;28;20521;-75
2022/02/20 18:41:47;;;;;;;1.10;0.57;;;6.90;96.30;;;;;;5052547;28;20467;-76
2022/02/20 18:44:14;;;;;;;1.47;0.70;;;6.90;96.30;;;;;;5052106;28;20461;-73
2022/02/20 18:46:40;;;;;;;6.63;1.53;;;6.90;96.30;;;;;;5052379;28;20431;-74
2022/02/20 18:49:06;;;;;;;1.10;0.73;;;6.90;96.30;;;;;;5052344;28;20418;-74
2022/02/20 18:51:32;;;;;;;0.90;0.60;;;6.80;96.30;;;;;;5052307;28;20418;-75
2022/02/20 18:53:57;;;;;;;1.73;0.97;;;6.90;96.30;;;;;;5044220;28;20179;-75
2022/02/20 18:56:23;;;;;;;1.87;0.87;;;6.90;96.30;;;;;;5052126;28;20578;-77
2022/02/20 18:58:49;;;;;;;3.13;1.63;;;6.90;96.30;;;;;;5052377;28;20179;-78
2022/02/20 19:01:14;;;;;;;2.70;1.70;;;7.00;96.30;;;;;;5051193;28;20187;-77
2022/02/20 19:03:40;;;;;;;1.90;1.00;;;7.00;96.30;;;;;;5034569;28;20251;-79
2022/02/20 19:06:05;;;;;;;1.73;0.83;;;7.00;96.30;;;;;;5034203;28;20199;-77
2022/02/20 19:08:31;;;;;;;4.30;1.83;;;7.00;96.30;;;;;;5034364;28;20636;-76
2022/02/20 19:10:56;;;;;;;2.17;1.30;;;6.90;96.30;;;;;;5040753;28;20200;-77
2022/02/20 19:13:23;;;;;;;1.87;0.80;;;6.90;96.30;;;;;;5028118;28;20194;-76
2022/02/20 19:15:48;;;;;;;1.93;0.80;;;7.00;96.30;;;;;;5034077;28;20689;-77
2022/02/20 19:18:14;;;;;;;1.03;0.73;;;7.00;96.30;;;;;;5052013;28;20433;-77
2022/02/20 19:20:39;;;;;;;1.20;0.60;;;7.00;96.30;;;;;;5034464;28;20176;-78
2022/02/20 19:23:05;;;;;;;1.00;0.60;;;7.00;96.30;;;;;;5052226;28;20175;-79
2022/02/20 19:25:30;;;;;;;1.10;0.60;;;7.10;96.30;;;;;;5052551;28;20573;-80
2022/02/20 19:27:56;;;;;;;2.80;0.80;;;7.00;96.30;;;;;;5035046;28;20222;-78
2022/02/20 19:30:21;;;;;;;1.97;0.90;;;7.00;96.30;;;;;;5035079;28;20215;-79
2022/02/20 19:32:47;;;;;;;2.30;1.17;;;7.00;96.30;;;;;;5052832;28;20171;-78
2022/02/20 19:35:14;;;;;;;2.57;1.57;;;7.10;96.30;;;;;;5052466;28;20651;-78
2022/02/20 19:37:39;;;;;;;1.80;0.80;;;7.00;96.30;;;;;;5052847;28;20437;-79
2022/02/20 19:40:07;;;;;;;2.50;0.87;;;7.00;96.30;;;;;;5053702;28;20417;-79
2022/02/20 19:42:33;;;;;;;1.63;0.77;;;6.90;96.30;;;;;;5053954;28;20693;-78
2022/02/20 19:44:59;;;;;;;1.27;0.70;;;6.90;96.30;;;;;;5053119;28;20493;-79
2022/02/20 19:47:25;;;;;;;6.83;1.37;;;6.80;96.30;;;;;;5031733;28;20443;-78
2022/02/20 19:49:51;;;;;;;1.73;0.80;;;6.80;96.30;;;;;;5034251;28;20636;-79
2022/02/20 19:52:16;;;;;;;2.23;0.80;;;6.80;96.30;;;;;;5031154;28;20250;-79
2022/02/20 19:54:42;;;;;;;1.67;0.80;;;6.70;96.30;;;;;;5032468;28;20270;-79
2022/02/20 19:57:07;;;;;;;5.43;2.93;;;6.80;96.30;;;;;;5031335;28;20718;-79
2022/02/20 19:59:33;;;;;;;2.43;0.80;;;6.80;96.30;;;;;;5049459;28;20176;-78
2022/02/20 20:01:59;;;;;;;0.90;0.70;;;6.70;96.30;;;;;;5052746;28;20619;-79
2022/02/20 20:04:27;;;;;;;1.10;0.60;;;6.60;96.30;;;;;;5031316;28;20199;-79
2022/02/20 20:07:01;;;;;;;3.47;0.80;;;6.60;96.30;;;;;;5052586;28;20449;-80
2022/02/20 20:09:31;;;;;;;1.10;0.63;;;6.60;96.30;;;;;;5053372;28;20410;-80
2022/02/20 20:11:56;;;;;;;7.23;0.80;;;6.60;96.30;;;;;;5035509;28;20426;-81
2022/02/20 20:14:22;;;;;;;2.17;0.73;;;6.60;96.30;;;;;;5035583;28;20444;-80
2022/02/20 20:16:48;;;;;;;2.23;0.70;;;6.60;96.30;;;;;;5053140;28;20250;-80
2022/02/20 20:19:13;;;;;;;1.57;0.70;;;6.60;96.30;;;;;;5035331;28;20176;-78
2022/02/20 20:21:39;;;;;;;1.00;0.60;;;6.50;96.30;;;;;;5052128;28;20237;-80
2022/02/20 20:24:08;;;;;;;1.37;0.60;;;6.50;96.30;;;;;;5034121;28;20196;-80
2022/02/20 20:26:33;;;;;;;1.00;0.60;;;6.50;96.30;;;;;;5035907;28;20723;-80
2022/02/20 20:28:58;;;;;;;5.90;1.10;;;6.50;96.30;;;;;;5056232;28;20496;-80
2022/02/20 20:31:24;;;;;;;0.90;0.70;;;6.60;96.30;;;;;;5056599;28;20178;-80
2022/02/20 20:33:50;;;;;;;1.40;0.90;;;6.50;96.30;;;;;;5038700;28;20271;-81
2022/02/20 20:36:16;;;;;;;2.33;0.60;;;6.50;96.30;;;;;;5056775;28;20278;-82
2022/02/20 20:38:44;;;;;;;1.20;0.60;;;6.50;96.30;;;;;;5036818;28;20450;-82
2022/02/20 20:41:11;;;;;;;3.17;1.80;;;6.50;96.30;;;;;;5036227;28;20211;-81
2022/02/20 20:43:36;;;;;;;1.97;0.90;;;6.50;96.30;;;;;;5054423;28;20412;-81
2022/02/20 20:46:02;;;;;;;3.00;0.80;;;6.50;96.30;;;;;;5035781;28;20419;-81
2022/02/20 20:48:28;;;;;;;1.80;1.37;;;6.60;96.30;;;;;;5035868;28;20192;-81
2022/02/20 20:50:53;;;;;;;1.33;0.60;;;6.50;96.30;;;;;;5027904;28;20760;-81
2022/02/20 20:53:22;;;;;;;1.00;0.70;;;6.50;96.30;;;;;;5039380;28;20231;-80
2022/02/20 20:55:51;;;;;;;1.17;0.60;;;6.50;96.30;;;;;;5039091;28;20317;-81
2022/02/20 20:58:17;;;;;;;1.10;0.60;;;6.50;96.30;;;;;;5058456;28;20492;-80
2022/02/20 21:00:43;;;;;;;0.90;0.60;;;6.40;96.30;;;;;;5040658;28;20426;-79
2022/02/20 21:03:09;;;;;;;0.80;0.40;;;6.40;96.30;;;;;;5039703;28;20772;-79
2022/02/20 21:05:37;;;;;;;1.10;0.70;;;6.50;96.30;;;;;;5039533;28;20458;-80
2022/02/20 21:08:03;;;;;;;1.07;0.63;;;6.40;96.30;;;;;;5040101;28;20206;-80
2022/02/20 21:10:29;;;;;;;1.47;0.60;;;6.50;96.30;;;;;;5040338;28;20421;-80
2022/02/20 21:12:54;;;;;;;0.90;0.57;;;6.50;96.30;;;;;;5039658;28;20410;-80
2022/02/20 21:15:20;;;;;;;1.60;0.70;;;6.50;96.30;;;;;;5057801;28;20178;-80
2022/02/20 21:17:47;;;;;;;1.20;0.60;;;6.50;96.30;;;;;;5039813;28;20203;-79